Time;durP1;ratioP1;P1;durP2;ratioP2;P2;SDS_P1;SDS_P2;PMS_P1;PMS_P2;Temp;Humidity;BMP_temperature;BMP_pressure;BME280_temperature;BME280_humidity;BME280_pressure;Samples;Min_cycle;Max_cycle;Signal;HPM_P1;HPM_P2
2022/08/31 00:06:14;;;;;;;;;;;;;;;-142.75;100.00;77188.44;5055705;28;19920;-68
2022/08/31 00:08:39;;;;;;;;;;;;;;;-142.75;100.00;77196.31;5055047;28;20011;-67
2022/08/31 00:11:08;;;;;;;;;;;;;;;-142.75;100.00;77192.38;5055247;28;19983;-68
2022/08/31 00:13:33;;;;;;;;;;;;;;;-142.75;100.00;77200.25;5055124;28;20008;-68
2022/08/31 00:15:59;;;;;;;;;;;;;;;-142.75;100.00;77210.09;5055141;28;19999;-69
2022/08/31 00:18:24;;;;;;;;;;;;;;;-142.75;100.00;77204.19;5054721;28;19912;-68
2022/08/31 00:20:49;;;;;;;;;;;;;;;-142.75;100.00;77204.19;5055199;28;19971;-68
2022/08/31 00:23:15;;;;;;;;;;;;;;;-142.75;100.00;77210.09;5037079;28;20359;-68
2022/08/31 00:25:42;;;;;;;;;;;;;;;-142.75;100.00;77208.13;5055006;28;19913;-68
2022/08/31 00:28:08;;;;;;;;;;;;;;;-142.75;100.00;77214.03;5054520;28;19913;-68
2022/08/31 00:30:33;;;;;;;;;;;;;;;-142.75;100.00;77216.00;5054903;28;19913;-67
2022/08/31 00:32:59;;;;;;;;;;;;;;;-142.75;100.00;77221.91;5054741;28;20297;-68
2022/08/31 00:35:28;;;;;;;;;;;;;;;-142.75;100.00;77233.72;5054793;28;19956;-68
2022/08/31 00:37:53;;;;;;;;;;;;;;;-142.75;100.00;77231.75;5054431;28;19912;-68
2022/08/31 00:40:19;;;;;;;;;;;;;;;-142.75;100.00;77223.88;5036754;28;19924;-68
2022/08/31 00:42:45;;;;;;;;;;;;;;;-142.75;100.00;77227.81;5054560;28;19964;-68
2022/08/31 00:45:10;;;;;;;;;;;;;;;-142.75;100.00;77239.63;5054297;28;19917;-68
2022/08/31 00:47:36;;;;;;;;;;;;;;;-142.75;100.00;77233.72;5054190;28;19917;-68
2022/08/31 00:50:03;;;;;;;;;;;;;;;-142.75;100.00;77249.47;5036909;28;20452;-68
2022/08/31 00:52:30;;;;;;;;;;;;;;;-142.75;100.00;77259.31;5054041;28;20378;-69
2022/08/31 00:55:07;;;;;;;;;;;;;;;-142.75;100.00;77253.41;5054449;28;19924;-68
2022/08/31 00:57:37;;;;;;;;;;;;;;;-142.75;100.00;77257.34;5054002;28;19917;-68
2022/08/31 01:00:05;;;;;;;;;;;;;;;-142.75;100.00;77259.31;5054050;28;19924;-68
2022/08/31 01:02:30;;;;;;;;;;;;;;;-142.75;100.00;77255.38;5054198;28;19920;-68
2022/08/31 01:04:55;;;;;;;;;;;;;;;-142.75;100.00;77267.19;5054597;28;20469;-68
2022/08/31 01:07:21;;;;;;;;;;;;;;;-142.75;100.00;77280.97;5053820;28;19912;-68
2022/08/31 01:09:46;;;;;;;;;;;;;;;-142.75;100.00;77271.13;5054203;28;19956;-68
2022/08/31 01:12:12;;;;;;;;;;;;;;;-142.75;100.00;77271.13;5036037;28;20401;-68
2022/08/31 01:14:38;;;;;;;;;;;;;;;-142.75;100.00;77284.91;5053936;28;19995;-67
2022/08/31 01:17:03;;;;;;;;;;;;;;;-142.75;100.00;77286.88;5053693;28;19966;-68
2022/08/31 01:19:28;;;;;;;;;;;;;;;-142.75;100.00;77294.75;5053921;28;19921;-68
2022/08/31 01:21:58;;;;;;;;;;;;;;;-142.75;100.00;77292.78;5053865;28;19967;-68
2022/08/31 01:24:24;;;;;;;;;;;;;;;-142.75;100.00;77306.56;5053875;28;19913;-68
2022/08/31 01:26:50;;;;;;;;;;;;;;;-142.75;100.00;77310.50;5053592;28;20383;-68
2022/08/31 01:29:16;;;;;;;;;;;;;;;-142.75;100.00;77312.47;5053644;28;19913;-69
2022/08/31 01:31:43;;;;;;;;;;;;;;;-142.75;100.00;77302.63;5053678;28;19920;-68
2022/08/31 01:34:08;;;;;;;;;;;;;;;-142.75;100.00;77326.25;5053677;28;19920;-68
2022/08/31 01:36:34;;;;;;;;;;;;;;;-142.75;100.00;77322.31;5035549;28;19913;-67
2022/08/31 01:38:59;;;;;;;;;;;;;;;-142.75;100.00;77320.34;5053506;28;19913;-68
2022/08/31 01:41:25;;;;;;;;;;;;;;;-142.75;100.00;77326.25;5053975;28;20381;-68
2022/08/31 01:43:51;;;;;;;;;;;;;;;-142.75;100.00;77324.28;5053294;28;19919;-68
2022/08/31 01:46:17;;;;;;;;;;;;;;;-142.75;100.00;77322.31;5053348;28;19924;-68
2022/08/31 01:48:43;;;;;;;;;;;;;;;-142.75;100.00;77338.06;5035257;28;19912;-68
2022/08/31 01:51:09;;;;;;;;;;;;;;;-142.75;100.00;77326.25;5053336;28;19945;-68
2022/08/31 01:53:35;;;;;;;;;;;;;;;-142.75;100.00;77340.03;5082789;23;19958;-67
2022/08/31 01:56:00;;;;;;;;;;;;;;;-142.75;100.00;77326.25;5073092;28;20290;-67
2022/08/31 01:58:25;;;;;;;;;;;;;;;-142.75;100.00;77353.81;5074335;28;20000;-67
2022/08/31 02:00:51;;;;;;;;;;;;;;;-142.75;100.00;77353.81;5076011;28;20025;-67
2022/08/31 02:03:16;;;;;;;;;;;;;;;-142.75;100.00;77349.88;5076180;28;20389;-67
2022/08/31 02:05:41;;;;;;;;;;;;;;;-142.75;100.00;77359.72;5076688;28;20250;-67
2022/08/31 02:08:08;;;;;;;;;;;;;;;-142.75;100.00;77353.81;5076063;28;19913;-67
2022/08/31 02:10:33;;;;;;;;;;;;;;;-142.75;100.00;77355.78;5076049;28;19912;-67
2022/08/31 02:12:58;;;;;;;;;;;;;;;-142.75;100.00;77353.81;5075704;28;20420;-68
2022/08/31 02:15:24;;;;;;;;;;;;;;;-142.75;100.00;77371.53;5076318;28;19912;-67
2022/08/31 02:17:49;;;;;;;;;;;;;;;-142.75;100.00;77365.63;5074575;28;19979;-68
2022/08/31 02:20:15;;;;;;;;;;;;;;;-142.75;100.00;77363.66;5074529;28;19921;-67
2022/08/31 02:22:40;;;;;;;;;;;;;;;-142.75;100.00;77353.81;5073950;28;19947;-67
2022/08/31 02:25:07;;;;;;;;;;;;;;;-142.75;100.00;77355.78;5074336;28;19913;-67
2022/08/31 02:27:32;;;;;;;;;;;;;;;-142.75;100.00;77367.59;5073883;28;20458;-67
2022/08/31 02:29:57;;;;;;;;;;;;;;;-142.75;100.00;77373.50;5074384;28;19912;-67
2022/08/31 02:32:23;;;;;;;;;;;;;;;-142.75;100.00;77377.44;5074043;28;19958;-67
2022/08/31 02:34:49;;;;;;;;;;;;;;;-142.75;100.00;77373.50;5074089;28;19997;-67
2022/08/31 02:37:15;;;;;;;;;;;;;;;-142.75;100.00;77377.44;5073659;28;19912;-67
2022/08/31 02:39:40;;;;;;;;;;;;;;;-142.75;100.00;77381.38;5073557;28;19924;-67
2022/08/31 02:42:06;;;;;;;;;;;;;;;-142.75;100.00;77385.31;5073594;28;19912;-67
2022/08/31 02:44:31;;;;;;;;;;;;;;;-142.75;100.00;77389.25;5073481;28;19912;-67
2022/08/31 02:46:56;;;;;;;;;;;;;;;-142.75;100.00;77377.44;5075988;28;19970;-67
2022/08/31 02:49:21;;;;;;;;;;;;;;;-142.75;100.00;77381.38;5073518;28;19912;-67
2022/08/31 02:51:46;;;;;;;;;;;;;;;-142.75;100.00;77395.16;5073738;28;20356;-67
2022/08/31 02:54:12;;;;;;;;;;;;;;;-142.75;100.00;77397.13;5073411;28;20373;-67
2022/08/31 02:56:37;;;;;;;;;;;;;;;-142.75;100.00;77397.13;5073346;28;20397;-67
2022/08/31 02:59:03;;;;;;;;;;;;;;;-142.75;100.00;77395.16;5073386;28;20298;-67
2022/08/31 03:01:28;;;;;;;;;;;;;;;-142.75;100.00;77397.13;5073351;28;19912;-67
2022/08/31 03:03:54;;;;;;;;;;;;;;;-142.75;100.00;77414.84;5073482;28;20374;-67
2022/08/31 03:06:19;;;;;;;;;;;;;;;-142.75;100.00;77416.81;5073065;28;19983;-67
2022/08/31 03:08:45;;;;;;;;;;;;;;;-142.75;100.00;77414.84;5072980;28;19912;-67
2022/08/31 03:11:10;;;;;;;;;;;;;;;-142.75;100.00;77418.78;5073746;28;20309;-67
2022/08/31 03:13:36;;;;;;;;;;;;;;;-142.75;100.00;77424.69;5073618;28;19958;-67
2022/08/31 03:16:02;;;;;;;;;;;;;;;-142.75;100.00;77420.75;5074012;28;20354;-67
2022/08/31 03:18:27;;;;;;;;;;;;;;;-142.75;100.00;77424.69;5073761;28;19919;-67
2022/08/31 03:20:52;;;;;;;;;;;;;;;-142.75;100.00;77434.53;5073691;28;19920;-67
2022/08/31 03:23:18;;;;;;;;;;;;;;;-142.75;100.00;77448.34;5073430;28;19912;-67
2022/08/31 03:25:43;;;;;;;;;;;;;;;-142.75;100.00;77440.44;5073320;28;19916;-67
2022/08/31 03:28:08;;;;;;;;;;;;;;;-142.75;100.00;77432.56;5073403;28;20348;-67
2022/08/31 03:30:34;;;;;;;;;;;;;;;-142.75;100.00;77436.50;5071880;28;19935;-67
2022/08/31 03:32:59;;;;;;;;;;;;;;;-142.75;100.00;77450.28;5073115;28;19913;-67
2022/08/31 03:35:24;;;;;;;;;;;;;;;-142.75;100.00;77432.56;5071763;28;19913;-67
2022/08/31 03:37:49;;;;;;;;;;;;;;;-142.75;100.00;77436.50;5072069;28;20262;-67
2022/08/31 03:40:14;;;;;;;;;;;;;;;-142.75;100.00;77436.50;5078637;28;19928;-67
2022/08/31 03:42:40;;;;;;;;;;;;;;;-142.75;100.00;77436.50;5092971;28;19919;-67
2022/08/31 03:45:07;;;;;;;;;;;;;;;-142.75;100.00;77442.41;5093081;28;20393;-67
2022/08/31 03:47:32;;;;;;;;;;;;;;;-142.75;100.00;77432.56;5093255;28;19912;-67
2022/08/31 03:49:57;;;;;;;;;;;;;;;-142.75;100.00;77442.41;5093777;28;19912;-67
2022/08/31 03:52:23;;;;;;;;;;;;;;;-142.75;100.00;77448.34;5093128;28;19924;-67
2022/08/31 03:54:48;;;;;;;;;;;;;;;-142.75;100.00;77464.09;5093612;28;19963;-67
2022/08/31 03:57:13;;;;;;;;;;;;;;;-142.75;100.00;77466.03;5093731;28;19923;-67
2022/08/31 03:59:39;;;;;;;;;;;;;;;-142.75;100.00;77468.03;5092969;28;19916;-67
2022/08/31 04:02:04;;;;;;;;;;;;;;;-142.75;100.00;77468.03;5093362;28;19943;-67
2022/08/31 04:04:29;;;;;;;;;;;;;;;-142.75;100.00;77464.09;5093309;28;19918;-67
2022/08/31 04:06:54;;;;;;;;;;;;;;;-142.75;100.00;77470.00;5092872;28;19923;-67
2022/08/31 04:09:20;;;;;;;;;;;;;;;-142.75;100.00;77483.78;5093002;28;20010;-67
2022/08/31 04:11:45;;;;;;;;;;;;;;;-142.75;100.00;77473.94;5093252;28;19912;-67
2022/08/31 04:14:10;;;;;;;;;;;;;;;-142.75;100.00;77481.81;5093277;28;19989;-67
2022/08/31 04:16:36;;;;;;;;;;;;;;;-142.75;100.00;77471.97;5086869;28;20475;-67
2022/08/31 04:19:02;;;;;;;;;;;;;;;-142.75;100.00;77485.75;5092510;28;19912;-67
2022/08/31 04:21:31;;;;;;;;;;;;;;;-142.75;100.00;77479.84;5095454;28;19916;-67
2022/08/31 04:23:57;;;;;;;;;;;;;;;-142.75;100.00;77471.97;5095445;28;19919;-67
2022/08/31 04:26:27;;;;;;;;;;;;;;;-142.75;100.00;77477.88;5096825;28;19912;-67
2022/08/31 04:28:52;;;;;;;;;;;;;;;-142.75;100.00;77487.72;5096538;28;19916;-67
2022/08/31 04:31:18;;;;;;;;;;;;;;;-142.75;100.00;77483.78;5096784;28;19965;-67
2022/08/31 04:33:44;;;;;;;;;;;;;;;-142.75;100.00;77479.84;5096788;28;19916;-67
2022/08/31 04:36:11;;;;;;;;;;;;;;;-142.75;100.00;77487.72;5096453;28;19912;-67
2022/08/31 04:38:37;;;;;;;;;;;;;;;-142.75;100.00;77481.81;5096050;28;20002;-67
2022/08/31 04:41:04;;;;;;;;;;;;;;;-142.75;100.00;77483.78;5096326;28;20014;-67
2022/08/31 04:43:29;;;;;;;;;;;;;;;-142.75;100.00;77485.75;5096030;28;20300;-67
2022/08/31 04:45:54;;;;;;;;;;;;;;;-142.75;100.00;77479.84;5096067;28;20006;-67
2022/08/31 04:48:20;;;;;;;;;;;;;;;-142.75;100.00;77483.78;5096116;28;19919;-67
2022/08/31 04:50:49;;;;;;;;;;;;;;;-142.75;100.00;77483.78;5094658;28;19912;-67
2022/08/31 04:53:14;;;;;;;;;;;;;;;-142.75;100.00;77481.81;5094786;28;19924;-67
2022/08/31 04:55:40;;;;;;;;;;;;;;;-142.75;100.00;77501.50;5095924;28;19938;-67
2022/08/31 04:58:05;;;;;;;;;;;;;;;-142.75;100.00;77503.47;5095497;28;19974;-67
2022/08/31 05:00:30;;;;;;;;;;;;;;;-142.75;100.00;77503.47;5095807;28;19923;-67
2022/08/31 05:02:55;;;;;;;;;;;;;;;-142.75;100.00;77509.38;5095835;28;19912;-67
2022/08/31 05:05:20;;;;;;;;;;;;;;;-142.75;100.00;77509.38;5095660;28;19925;-67
2022/08/31 05:07:46;;;;;;;;;;;;;;;-142.75;100.00;77507.41;5095435;28;20373;-67
2022/08/31 05:10:11;;;;;;;;;;;;;;;-142.75;100.00;77519.22;5096035;28;19912;-67
2022/08/31 05:12:36;;;;;;;;;;;;;;;-142.75;100.00;77515.28;5095653;28;19919;-67
2022/08/31 05:15:01;;;;;;;;;;;;;;;-142.75;100.00;77519.22;5095952;28;19920;-67
2022/08/31 05:17:27;;;;;;;;;;;;;;;-142.75;100.00;77523.16;5095667;28;19912;-67
2022/08/31 05:19:52;;;;;;;;;;;;;;;-142.75;100.00;77517.25;5095811;28;19923;-68
2022/08/31 05:22:17;;;;;;;;;;;;;;;-142.75;100.00;77519.22;5096322;28;19919;-67
2022/08/31 05:24:42;;;;;;;;;;;;;;;-142.75;100.00;77531.03;5096259;28;19912;-67
2022/08/31 05:27:08;;;;;;;;;;;;;;;-142.75;100.00;77529.06;5095320;28;20377;-68
2022/08/31 05:29:33;;;;;;;;;;;;;;;-142.75;100.00;77519.22;5095777;28;19923;-67
2022/08/31 05:31:59;;;;;;;;;;;;;;;-142.75;100.00;77503.47;5094761;28;19912;-67
2022/08/31 05:34:24;;;;;;;;;;;;;;;-142.75;100.00;77489.69;5094506;28;19972;-67
2022/08/31 05:36:53;;;;;;;;;;;;;;;-142.75;100.00;77481.81;5095726;28;19912;-67
2022/08/31 05:39:19;;;;;;;;;;;;;;;-142.75;100.00;77460.13;5095554;28;19912;-67
2022/08/31 05:41:47;;;;;;;;;;;;;;;-142.75;100.00;77442.41;5095054;28;19912;-67
2022/08/31 05:44:13;;;;;;;;;;;;;;;-142.75;100.00;77418.78;5095411;28;19912;-67
2022/08/31 05:46:38;;;;;;;;;;;;;;;-142.75;100.00;77393.19;5095456;28;20002;-67
2022/08/31 05:49:05;;;;;;;;;;;;;;;-142.75;100.00;77373.50;5095957;28;20029;-67
2022/08/31 05:51:30;;;;;;;;;;;;;;;-142.75;100.00;77355.78;5095426;28;19919;-67
2022/08/31 05:53:57;;;;;;;;;;;;;;;-142.75;100.00;77342.00;5095742;28;19916;-67
2022/08/31 05:56:24;;;;;;;;;;;;;;;-142.75;100.00;77334.13;5095486;28;19918;-67
2022/08/31 05:58:49;;;;;;;;;;;;;;;-142.75;100.00;77312.47;5095003;28;20004;-67
2022/08/31 06:01:16;;;;;;;;;;;;;;;-142.75;100.00;77302.63;5095071;28;19966;-67
2022/08/31 06:03:42;;;;;;;;;;;;;;;-142.75;100.00;77282.94;5095215;28;19912;-67
2022/08/31 06:06:08;;;;;;;;;;;;;;;-142.75;100.00;77277.03;5093478;28;19919;-67
2022/08/31 06:08:35;;;;;;;;;;;;;;;-142.75;100.00;77253.41;5094656;28;19916;-67
2022/08/31 06:11:00;;;;;;;;;;;;;;;-142.75;100.00;77231.75;5093640;28;20270;-67
2022/08/31 06:13:25;;;;;;;;;;;;;;;-142.75;100.00;77212.06;5095398;28;19945;-67
2022/08/31 06:15:52;;;;;;;;;;;;;;;-142.75;100.00;77208.13;5088256;28;20447;-67
2022/08/31 06:18:19;;;;;;;;;;;;;;;-142.75;100.00;77192.38;5083313;28;19951;-67
2022/08/31 06:20:44;;;;;;;;;;;;;;;-142.75;100.00;77176.63;5083735;28;19968;-67
2022/08/31 06:23:09;;;;;;;;;;;;;;;-142.75;100.00;77145.13;5082998;28;19927;-67
2022/08/31 06:25:35;;;;;;;;;;;;;;;-142.75;100.00;77137.25;5083630;28;19916;-67
2022/08/31 06:28:01;;;;;;;;;;;;;;;-142.75;100.00;77129.38;5091633;28;20020;-67
2022/08/31 06:30:26;;;;;;;;;;;;;;;-142.75;100.00;77117.56;5094821;28;19918;-67
2022/08/31 06:32:52;;;;;;;;;;;;;;;-142.75;100.00;77090.00;5093886;28;20293;-67
2022/08/31 06:35:17;;;;;;;;;;;;;;;-142.75;100.00;77080.16;5094916;28;19938;-67
2022/08/31 06:37:42;;;;;;;;;;;;;;;-142.75;100.00;77058.50;5094267;28;19912;-67
2022/08/31 06:40:08;;;;;;;;;;;;;;;-142.75;100.00;77058.50;5094370;28;19918;-67
2022/08/31 06:42:33;;;;;;;;;;;;;;;-142.75;100.00;77044.72;5093074;28;19993;-67
2022/08/31 06:44:58;;;;;;;;;;;;;;;-142.75;100.00;77030.94;5094263;28;19959;-67
2022/08/31 06:47:24;;;;;;;;;;;;;;;-142.75;100.00;77001.41;5094380;28;19915;-67
2022/08/31 06:49:50;;;;;;;;;;;;;;;-142.75;100.00;77001.41;5093840;28;19919;-67
2022/08/31 06:52:16;;;;;;;;;;;;;;;-142.75;100.00;76987.63;5094345;28;19920;-67
2022/08/31 06:54:41;;;;;;;;;;;;;;;-142.75;100.00;76979.75;5094241;28;19937;-67
2022/08/31 06:57:06;;;;;;;;;;;;;;;-142.75;100.00;76958.09;5093909;28;19918;-67
2022/08/31 06:59:32;;;;;;;;;;;;;;;-142.75;100.00;76975.81;5093858;28;19969;-67
2022/08/31 07:02:00;;;;;;;;;;;;;;;-142.75;100.00;76960.06;5094114;28;20282;-66
2022/08/31 07:04:26;;;;;;;;;;;;;;;-142.75;100.00;76965.97;5093979;28;19912;-66
2022/08/31 07:06:51;;;;;;;;;;;;;;;-142.75;100.00;76964.00;5093650;28;20381;-66
2022/08/31 07:09:17;;;;;;;;;;;;;;;-142.75;100.00;76924.63;5088992;28;19923;-66
2022/08/31 07:11:47;;;;;;;;;;;;;;;-142.75;100.00;76916.75;5073026;28;19912;-66
2022/08/31 07:14:14;;;;;;;;;;;;;;;-142.75;100.00;76924.63;5072840;28;19913;-66
2022/08/31 07:16:39;;;;;;;;;;;;;;;-142.75;100.00;76904.94;5076718;28;19916;-66
2022/08/31 07:19:05;;;;;;;;;;;;;;;-142.75;100.00;76891.16;5076649;28;19924;-66
2022/08/31 07:21:32;;;;;;;;;;;;;;;-142.75;100.00;76873.44;5079464;28;20437;-66
2022/08/31 07:23:59;;;;;;;;;;;;;;;-142.75;100.00;76838.00;5075567;28;19916;-66
2022/08/31 07:26:26;;;;;;;;;;;;;;;-142.75;100.00;76849.81;5079330;28;20444;-66
2022/08/31 07:28:53;;;;;;;;;;;;;;;-142.75;100.00;76851.78;5077388;28;19935;-66
2022/08/31 07:31:22;;;;;;;;;;;;;;;-142.75;100.00;76834.06;5076943;28;19940;-67
2022/08/31 07:33:52;;;;;;;;;;;;;;;-142.75;100.00;76802.56;5080519;28;19917;-66
2022/08/31 07:36:17;;;;;;;;;;;;;;;-142.75;100.00;76794.69;5078297;28;20007;-66
2022/08/31 07:44:13;;;;;;;;;;;;;;;-142.75;100.00;76782.91;5076107;28;19958;-67
2022/08/31 07:46:39;;;;;;;;;;;;;;;-142.75;100.00;76767.16;5073172;28;19962;-67
2022/08/31 07:49:12;;;;;;;;;;;;;;;-142.75;100.00;76796.69;5079150;28;19916;-67
2022/08/31 07:51:44;;;;;;;;;;;;;;;-142.75;100.00;76755.34;5085740;28;20297;-66
2022/08/31 07:54:10;;;;;;;;;;;;;;;-142.75;100.00;76731.72;5078961;28;20378;-67
2022/08/31 07:56:36;;;;;;;;;;;;;;;-142.75;100.00;76712.03;5080530;28;20015;-65
2022/08/31 07:59:02;;;;;;;;;;;;;;;-142.75;100.00;76680.53;5077095;28;19917;-64
2022/08/31 08:01:30;;;;;;;;;;;;;;;-142.75;99.12;76715.97;5084760;28;19920;-65
2022/08/31 08:03:56;;;;;;;;;;;;;;;-142.75;100.00;76731.72;5078666;28;20396;-65
2022/08/31 08:06:24;;;;;;;;;;;;;;;-142.75;100.00;76714.00;5083472;28;19916;-65
2022/08/31 08:08:53;;;;;;;;;;;;;;;-142.75;100.00;76694.31;5077843;28;19997;-65
2022/08/31 08:11:20;;;;;;;;;;;;;;;-142.75;100.00;76652.97;5085651;28;20050;-67
2022/08/31 08:13:46;;;;;;;;;;;;;;;-142.75;100.00;76654.94;5080077;28;19920;-66
2022/08/31 08:16:11;;;;;;;;;;;;;;;-142.75;96.10;76613.59;5089146;22;19932;-69
2022/08/31 08:18:36;;;;;;;;;;;;;;;-142.75;93.30;76637.22;5056079;28;19924;-69
2022/08/31 08:21:02;;;;;;;;;;;;;;;-142.75;93.39;76607.69;5070510;28;19958;-68
2022/08/31 08:23:27;;;;;;;;;;;;;;;-142.75;92.53;76609.66;5053989;28;19958;-68
2022/08/31 08:25:52;;;;;;;;;;;;;;;-142.75;94.29;76617.53;5039475;28;20295;-68
2022/08/31 08:28:19;;;;;;;;;;;;;;;-142.75;95.43;76556.50;5035280;28;19947;-69
2022/08/31 08:30:45;;;;;;;;;;;;;;;-142.75;86.18;76558.47;5036617;28;19913;-69
2022/08/31 08:33:10;;;;;;;;;;;;;;;-142.75;87.88;76591.94;5037011;28;20003;-69
2022/08/31 08:35:36;;;;;;;;;;;;;;;-142.75;89.12;76546.66;5050470;28;19917;-69
2022/08/31 08:38:01;;;;;;;;;;;;;;;-142.75;88.04;76540.75;5054375;28;19955;-69
2022/08/31 08:40:30;;;;;;;;;;;;;;;-142.75;88.98;76491.56;5054517;28;19946;-68
2022/08/31 08:42:55;;;;;;;;;;;;;;;-142.75;89.92;76460.06;5055868;28;19916;-68
2022/08/31 08:45:21;;;;;;;;;;;;;;;-142.75;85.16;76458.09;5055502;28;19913;-69
2022/08/31 08:47:48;;;;;;;;;;;;;;;-142.75;84.32;76444.31;5055436;28;20008;-69
2022/08/31 08:50:17;;;;;;;;;;;;;;;-142.75;81.69;76432.50;5056143;28;20417;-68
2022/08/31 08:52:43;;;;;;;;;;;;;;;-142.75;84.50;76404.94;5054926;28;19924;-68
2022/08/31 08:55:15;;;;;;;;;;;;;;;-142.75;82.83;76377.38;5053303;28;19913;-68
2022/08/31 08:57:41;;;;;;;;;;;;;;;-142.75;83.42;76341.97;5053189;28;19912;-68
2022/08/31 09:00:13;;;;;;;;;;;;;;;-142.75;81.83;76332.13;5052350;28;19939;-68
2022/08/31 09:02:45;;;;;;;;;;;;;;;-142.75;81.81;76322.28;5054391;28;20070;-68
2022/08/31 09:05:18;;;;;;;;;;;;;;;-142.75;81.05;76314.41;5055846;28;20366;-68
2022/08/31 09:07:46;;;;;;;;;;;;;;;-142.75;79.60;76280.94;5054990;28;20389;-68
2022/08/31 09:10:26;;;;;;;;;;;;;;;-142.75;75.18;76300.63;5056704;28;20011;-69
2022/08/31 09:13:07;;;;;;;;;;;;;;;-142.75;74.63;76302.59;5056968;28;19920;-69
2022/08/31 09:15:47;;;;;;;;;;;;;;;-142.75;76.74;76310.47;5056513;28;19917;-69
2022/08/31 09:18:35;;;;;;;;;;;;;;;-142.75;75.73;76330.16;5056349;28;19913;-68
2022/08/31 09:21:00;;;;;;;;;;;;;;;-142.75;77.02;76332.13;5056066;28;19916;-68
2022/08/31 09:23:28;;;;;;;;;;;;;;;-142.75;77.27;76330.16;5056370;28;20397;-69
2022/08/31 09:25:54;;;;;;;;;;;;;;;-142.75;78.49;76371.47;5056339;28;19913;-69
2022/08/31 09:28:43;;;;;;;;;;;;;;;-142.75;81.68;76290.78;5055713;28;19963;-69
2022/08/31 09:31:24;;;;;;;;;;;;;;;-142.75;77.43;76302.59;5056203;28;19919;-69
2022/08/31 09:33:49;;;;;;;;;;;;;;;-142.75;76.05;76271.09;5055989;28;19917;-68
2022/08/31 09:36:16;;;;;;;;;;;;;;;-142.75;75.54;76271.09;5056140;28;19920;-69
2022/08/31 09:38:42;;;;;;;;;;;;;;;-142.75;76.95;76251.41;5055755;28;19913;-68
2022/08/31 09:41:26;;;;;;;;;;;;;;;-142.75;76.60;76308.50;5054633;28;20350;-68
2022/08/31 09:43:54;;;;;;;;;;;;;;;-142.75;75.52;76245.50;5055528;28;19913;-68
2022/08/31 09:46:19;;;;;;;;;;;;;;;-142.75;75.07;76273.06;5054813;28;19925;-68
2022/08/31 09:48:55;;;;;;;;;;;;;;;-142.75;76.43;76225.81;5054668;28;19970;-69
2022/08/31 09:51:32;;;;;;;;;;;;;;;-142.75;74.63;76154.97;5055279;28;20007;-68
2022/08/31 09:56:54;;;;;;;;;;;;;;;-142.75;72.86;76078.19;5053361;28;19966;-69
2022/08/31 09:59:36;;;;;;;;;;;;;;;-142.75;69.72;76139.22;5054518;28;19917;-69
2022/08/31 10:02:05;;;;;;;;;;;;;;;-142.75;71.09;76149.06;5054234;28;19917;-68
2022/08/31 10:04:35;;;;;;;;;;;;;;;-142.75;71.90;76133.31;5055091;28;20370;-68
2022/08/31 10:07:15;;;;;;;;;;;;;;;-142.75;71.16;76064.44;5051169;28;19913;-67
2022/08/31 10:09:45;;;;;;;;;;;;;;;-142.75;69.54;76082.13;5053723;28;20451;-69
2022/08/31 10:12:36;;;;;;;;;;;;;;;-142.75;69.55;76093.94;5056278;28;19913;-69
2022/08/31 10:15:15;;;;;;;;;;;;;;;-142.75;69.35;76066.41;5054286;28;19924;-69
2022/08/31 10:17:44;;;;;;;;;;;;;;;-142.75;71.87;76093.94;5054369;28;19965;-68
2022/08/31 10:20:19;;;;;;;;;;;;;;;-142.75;69.16;76123.47;5054742;28;20294;-67
2022/08/31 10:22:52;;;;;;;;;;;;;;;-142.75;70.32;76072.31;5086981;28;19924;-67
2022/08/31 10:25:20;;;;;;;;;;;;;;;-142.75;69.00;76042.78;5052882;28;19917;-65
2022/08/31 10:28:05;;;;;;;;;;;;;;;-142.75;68.25;76074.25;5054080;28;19970;-67
2022/08/31 10:30:35;;;;;;;;;;;;;;;-142.75;68.52;76054.59;5052272;28;19913;-68
2022/08/31 10:33:03;;;;;;;;;;;;;;;-142.75;67.74;76044.75;5053424;28;19913;-68
2022/08/31 10:35:49;;;;;;;;;;;;;;;-142.75;68.22;75948.31;5052903;28;19920;-68
2022/08/31 10:38:24;;;;;;;;;;;;;;;-142.75;65.43;75938.47;5046673;28;19951;-67
2022/08/31 10:40:58;;;;;;;;;;;;;;;-142.75;65.44;75954.22;5054941;28;19924;-67
2022/08/31 10:43:28;;;;;;;;;;;;;;;-142.75;65.65;75960.13;5054684;28;20382;-66
2022/08/31 10:45:53;;;;;;;;;;;;;;;-142.75;65.76;75928.63;5086697;28;19913;-67
2022/08/31 10:48:20;;;;;;;;;;;;;;;-142.75;65.10;75973.88;5054377;28;19957;-67
2022/08/31 10:50:49;;;;;;;;;;;;;;;-142.75;66.05;75983.72;5052316;28;19917;-67
2022/08/31 10:53:21;;;;;;;;;;;;;;;-142.75;65.99;75960.13;5086113;28;19913;-67
2022/08/31 10:56:10;;;;;;;;;;;;;;;-142.75;64.09;75928.63;5053969;28;19919;-69
2022/08/31 10:58:51;;;;;;;;;;;;;;;-142.75;65.31;75930.59;5054135;28;19913;-67
2022/08/31 11:01:27;;;;;;;;;;;;;;;-142.75;65.60;75906.97;5054474;28;19928;-69
2022/08/31 11:04:09;;;;;;;;;;;;;;;-142.75;62.84;75934.53;5054291;28;19927;-69
2022/08/31 11:06:43;;;;;;;;;;;;;;;-142.75;64.62;75875.47;5054341;28;19971;-67
2022/08/31 11:09:19;;;;;;;;;;;;;;;-142.75;63.42;75877.44;5054457;28;20382;-69
2022/08/31 11:11:46;;;;;;;;;;;;;;;-142.75;63.00;75845.97;5085130;28;19947;-69
2022/08/31 11:14:25;;;;;;;;;;;;;;;-142.75;63.56;75903.03;5054419;28;19919;-69
2022/08/31 11:17:09;;;;;;;;;;;;;;;-142.75;62.46;75873.50;5054466;28;20410;-70
2022/08/31 11:19:47;;;;;;;;;;;;;;;-142.75;63.05;75964.03;5054721;28;20317;-69
2022/08/31 11:22:35;;;;;;;;;;;;;;;-142.75;64.20;75971.91;5053793;28;19970;-69
2022/08/31 11:25:02;;;;;;;;;;;;;;;-142.75;63.73;75853.84;5052254;28;19920;-68
2022/08/31 11:27:35;;;;;;;;;;;;;;;-142.75;63.85;75806.59;5054410;28;19913;-69
2022/08/31 11:30:23;;;;;;;;;;;;;;;-142.75;61.30;75808.56;5037730;28;19921;-69
2022/08/31 11:32:51;;;;;;;;;;;;;;;-142.75;61.03;75808.56;5039492;28;19991;-68
2022/08/31 11:35:36;;;;;;;;;;;;;;;-142.75;61.37;75845.97;5038998;28;19960;-69
2022/08/31 11:38:01;;;;;;;;;;;;;;;-142.75;61.84;75786.91;5037605;28;20356;-69
2022/08/31 11:40:44;;;;;;;;;;;;;;;-142.75;61.21;75737.72;5038777;28;19952;-69
2022/08/31 11:43:10;;;;;;;;;;;;;;;-142.75;59.62;75771.16;5039008;28;19966;-69
2022/08/31 11:45:36;;;;;;;;;;;;;;;-142.75;60.53;75842.03;5054029;28;19917;-69
2022/08/31 11:48:03;;;;;;;;;;;;;;;-142.75;62.63;75788.88;5054047;28;20417;-69
2022/08/31 11:50:34;;;;;;;;;;;;;;;-142.75;63.17;75771.16;5055965;28;19988;-69
2022/08/31 11:53:16;;;;;;;;;;;;;;;-142.75;62.54;75788.88;5058126;28;19912;-69
2022/08/31 11:55:50;;;;;;;;;;;;;;;-142.75;63.53;75808.56;5058028;28;19920;-69
2022/08/31 11:58:18;;;;;;;;;;;;;;;-142.75;63.60;75877.44;5056833;28;19920;-69
2022/08/31 12:00:46;;;;;;;;;;;;;;;-142.75;62.75;75844.00;5057350;28;19923;-69
2022/08/31 12:03:30;;;;;;;;;;;;;;;-142.75;62.45;75802.66;5056768;28;19920;-69
2022/08/31 12:05:56;;;;;;;;;;;;;;;-142.75;62.59;75794.78;5057356;28;19917;-67
2022/08/31 12:08:23;;;;;;;;;;;;;;;-142.75;61.13;75781.00;5055750;28;19913;-69
2022/08/31 12:10:56;;;;;;;;;;;;;;;-142.75;61.65;75718.03;5053591;28;19920;-67
2022/08/31 12:13:47;;;;;;;;;;;;;;;-142.75;59.91;75698.34;5054442;28;19912;-69
2022/08/31 12:16:13;;;;;;;;;;;;;;;-142.75;61.87;75723.94;5054779;28;19963;-69
2022/08/31 12:18:57;;;;;;;;;;;;;;;-142.75;60.60;75771.16;5055233;28;19917;-68
2022/08/31 12:24:38;;;;;;;;;;;;;;;-142.75;62.32;75838.09;5055209;28;19919;-70
2022/08/31 12:27:21;;;;;;;;;;;;;;;-142.75;61.86;75844.00;5054797;28;20421;-69
2022/08/31 12:29:46;;;;;;;;;;;;;;;-142.75;62.26;75875.47;5055810;28;20018;-69
2022/08/31 12:32:20;;;;;;;;;;;;;;;-142.75;63.37;75859.72;5054872;28;19926;-70
2022/08/31 12:34:48;;;;;;;;;;;;;;;-142.75;63.36;75769.19;5054717;28;19924;-70
2022/08/31 12:37:30;;;;;;;;;;;;;;;-142.75;61.91;75755.44;5054648;28;19924;-68
2022/08/31 12:40:04;;;;;;;;;;;;;;;-142.75;61.71;75822.34;5053574;28;19931;-70
2022/08/31 12:42:31;;;;;;;;;;;;;;;-142.75;62.65;75757.41;5052181;28;19920;-70